createdAt,value
2019-03-25T00:00:23.874Z,58.44
2019-03-25T00:01:29.007Z,58.60
2019-03-25T00:02:32.460Z,58.60
2019-03-25T00:03:35.967Z,58.65
2019-03-25T00:04:39.481Z,58.48
2019-03-25T00:05:42.919Z,58.58
2019-03-25T00:06:46.517Z,58.69
2019-03-25T00:07:49.964Z,58.83
2019-03-25T00:09:04.977Z,58.93
2019-03-25T00:09:58.720Z,58.99
2019-03-25T00:11:02.340Z,58.85
2019-03-25T00:12:05.853Z,58.88
2019-03-25T00:13:09.289Z,58.91
2019-03-25T00:14:12.803Z,58.86
2019-03-25T00:15:16.245Z,58.63
2019-03-25T00:16:19.750Z,58.49
2019-03-25T00:17:23.300Z,58.59
2019-03-25T00:18:26.773Z,58.64
2019-03-25T00:19:30.217Z,58.90
2019-03-25T00:20:33.685Z,58.77
2019-03-25T00:21:37.145Z,58.91
2019-03-25T00:22:40.577Z,59.08
2019-03-25T00:23:44.025Z,58.99
2019-03-25T00:24:47.458Z,58.87
2019-03-25T00:25:50.906Z,59.03
2019-03-25T00:26:54.616Z,59.09
2019-03-25T00:27:58.360Z,59.01
2019-03-25T00:29:01.927Z,59.13
2019-03-25T00:30:06.385Z,59.02
2019-03-25T00:31:09.904Z,59.02
2019-03-25T00:32:13.503Z,59.44
2019-03-25T00:33:16.891Z,59.48
2019-03-25T00:34:20.496Z,59.39
2019-03-25T00:35:23.997Z,59.23
2019-03-25T00:36:27.440Z,59.30
2019-03-25T00:37:30.902Z,59.24
2019-03-25T00:38:34.477Z,59.23
2019-03-25T00:39:37.992Z,59.17
2019-03-25T00:40:41.513Z,59.00
2019-03-25T00:41:45.101Z,58.87
2019-03-25T00:42:48.811Z,59.02
2019-03-25T00:43:52.399Z,59.17
2019-03-25T00:44:55.979Z,59.33
2019-03-25T00:45:59.636Z,59.31
2019-03-25T00:47:03.235Z,59.14
2019-03-25T00:48:06.748Z,59.19
2019-03-25T00:49:10.306Z,59.33
2019-03-25T00:50:13.834Z,59.32
2019-03-25T00:51:17.277Z,59.22
2019-03-25T00:52:20.808Z,59.49
2019-03-25T00:53:24.387Z,59.52
2019-03-25T00:54:27.842Z,59.27
2019-03-25T00:55:31.266Z,59.31
2019-03-25T00:56:34.799Z,59.34
2019-03-25T00:57:38.300Z,59.27
2019-03-25T00:58:41.882Z,59.30
2019-03-25T00:59:45.398Z,59.76
2019-03-25T01:00:49.016Z,59.98
2019-03-25T01:01:52.594Z,60.05
2019-03-25T01:02:56.115Z,59.83
2019-03-25T01:03:59.627Z,59.81
2019-03-25T01:05:03.171Z,59.69
2019-03-25T01:06:06.693Z,59.51
2019-03-25T01:07:10.253Z,59.30
2019-03-25T01:08:13.782Z,59.47
2019-03-25T01:09:17.219Z,59.43
2019-03-25T01:10:20.751Z,59.23
2019-03-25T01:11:24.364Z,59.22
2019-03-25T01:12:27.872Z,59.22
2019-03-25T01:13:31.315Z,59.26
2019-03-25T01:14:34.815Z,59.45
2019-03-25T01:15:38.295Z,59.57
2019-03-25T01:16:41.836Z,59.50
2019-03-25T01:17:45.365Z,59.48
2019-03-25T01:18:49.022Z,59.38
2019-03-25T01:19:52.574Z,59.30
2019-03-25T01:20:56.091Z,59.39
2019-03-25T01:21:59.524Z,59.39
2019-03-25T01:23:03.176Z,59.35
2019-03-25T01:24:06.746Z,59.25
2019-03-25T01:25:10.255Z,59.20
2019-03-25T01:26:13.780Z,59.21
2019-03-25T01:27:17.218Z,59.23
2019-03-25T01:28:20.676Z,59.11
2019-03-25T01:29:24.122Z,59.11
2019-03-25T01:30:27.617Z,58.98
2019-03-25T01:31:31.072Z,58.91
2019-03-25T01:32:34.557Z,58.90
2019-03-25T01:33:38.023Z,59.04
2019-03-25T01:34:41.540Z,59.09
2019-03-25T01:35:45.042Z,59.10
2019-03-25T01:36:48.488Z,59.22
2019-03-25T01:37:52.021Z,59.19
2019-03-25T01:38:55.488Z,59.14
2019-03-25T01:39:58.936Z,59.21
2019-03-25T01:41:02.376Z,59.08
2019-03-25T01:42:05.816Z,59.25
2019-03-25T01:43:09.288Z,59.58
2019-03-25T01:44:12.756Z,59.38
2019-03-25T01:45:16.263Z,59.27
2019-03-25T01:46:19.775Z,59.28
2019-03-25T01:47:23.216Z,59.44
2019-03-25T01:48:26.676Z,59.27
2019-03-25T01:49:30.132Z,59.21
2019-03-25T01:50:33.641Z,59.42
2019-03-25T01:51:37.146Z,59.18
2019-03-25T01:52:40.660Z,59.27
2019-03-25T01:53:44.125Z,59.18
2019-03-25T01:54:47.577Z,59.24
2019-03-25T01:55:51.028Z,59.37
2019-03-25T01:56:54.468Z,59.59
2019-03-25T01:57:57.924Z,59.54
2019-03-25T01:59:01.378Z,59.55
2019-03-25T02:00:06.763Z,59.49
2019-03-25T02:01:10.277Z,59.39
2019-03-25T02:02:13.752Z,59.36
2019-03-25T02:03:17.214Z,59.49
2019-03-25T02:04:20.674Z,59.45
2019-03-25T02:05:24.117Z,59.38
2019-03-25T02:06:27.560Z,59.42
2019-03-25T02:07:31.006Z,59.39
2019-03-25T02:08:34.438Z,59.35
2019-03-25T02:09:37.946Z,59.29
2019-03-25T02:10:41.344Z,59.36
2019-03-25T02:11:44.775Z,59.30
2019-03-25T02:12:48.217Z,59.38
2019-03-25T02:13:51.649Z,59.44
2019-03-25T02:14:55.112Z,59.47
2019-03-25T02:15:58.624Z,59.49
2019-03-25T02:17:02.075Z,59.63
2019-03-25T02:18:05.499Z,59.74
2019-03-25T02:19:08.936Z,59.71
2019-03-25T02:20:12.617Z,59.69
2019-03-25T02:21:16.061Z,59.76
2019-03-25T02:22:19.500Z,59.72
2019-03-25T02:23:22.953Z,60.01
2019-03-25T02:24:26.462Z,60.00
2019-03-25T02:25:29.911Z,60.10
2019-03-25T02:26:33.354Z,60.36
2019-03-25T02:27:36.798Z,60.17
2019-03-25T02:28:40.235Z,60.03
2019-03-25T02:29:43.680Z,59.99
2019-03-25T02:30:47.311Z,59.93
2019-03-25T02:31:50.761Z,59.84
2019-03-25T02:32:54.214Z,59.91
2019-03-25T02:33:57.665Z,60.00
2019-03-25T02:35:01.103Z,60.09
2019-03-25T02:36:04.652Z,60.15
2019-03-25T02:37:08.151Z,60.04
2019-03-25T02:38:11.744Z,60.10
2019-03-25T02:39:15.178Z,60.32
2019-03-25T02:40:18.622Z,60.57
2019-03-25T02:41:22.085Z,60.60
2019-03-25T02:42:25.531Z,60.54
2019-03-25T02:43:28.974Z,60.37
2019-03-25T02:44:32.449Z,60.20
2019-03-25T02:45:35.891Z,60.10
2019-03-25T02:46:39.471Z,60.15
2019-03-25T02:47:42.989Z,60.34
2019-03-25T02:48:46.438Z,60.35
2019-03-25T02:49:49.882Z,60.39
2019-03-25T02:50:53.321Z,60.41
2019-03-25T02:51:56.813Z,60.58
2019-03-25T02:53:00.285Z,60.60
2019-03-25T02:54:03.801Z,60.69
2019-03-25T02:55:07.594Z,60.79
2019-03-25T02:56:11.040Z,60.76
2019-03-25T02:57:14.487Z,60.84
2019-03-25T02:58:17.925Z,60.98
2019-03-25T02:59:21.382Z,61.23
2019-03-25T03:00:38.592Z,61.25
2019-03-25T03:01:42.110Z,61.09
2019-03-25T03:02:45.576Z,61.11
2019-03-25T03:03:49.021Z,61.04
2019-03-25T03:04:52.523Z,61.57
2019-03-25T03:05:55.959Z,61.68
2019-03-25T03:06:59.411Z,61.93
2019-03-25T03:08:02.873Z,62.12
2019-03-25T03:09:09.115Z,61.99
2019-03-25T03:10:13.197Z,61.79
2019-03-25T03:11:16.632Z,61.96
2019-03-25T03:12:20.068Z,61.99
2019-03-25T03:13:23.528Z,61.88
2019-03-25T03:14:27.046Z,61.94
2019-03-25T03:15:30.491Z,61.94
2019-03-25T03:16:33.935Z,61.93
2019-03-25T03:17:37.396Z,61.97
2019-03-25T03:18:40.841Z,62.37
2019-03-25T03:19:44.283Z,62.80
2019-03-25T03:20:47.720Z,62.96
2019-03-25T03:21:51.161Z,63.13
2019-03-25T03:22:54.606Z,62.98
2019-03-25T03:23:58.057Z,62.89
2019-03-25T03:25:01.507Z,62.91
2019-03-25T03:26:05.097Z,63.15
2019-03-25T03:27:08.536Z,63.30
2019-03-25T03:28:12.066Z,63.27
2019-03-25T03:29:15.566Z,63.29
2019-03-25T03:30:18.972Z,63.27
2019-03-25T03:31:22.435Z,63.20
2019-03-25T03:32:25.882Z,63.44
2019-03-25T03:33:29.331Z,63.54
2019-03-25T03:34:32.795Z,63.51
2019-03-25T03:35:36.266Z,63.40
2019-03-25T03:36:39.702Z,63.42
2019-03-25T03:37:43.144Z,63.66
2019-03-25T03:38:46.683Z,63.94
2019-03-25T03:39:50.130Z,64.17
2019-03-25T03:40:53.582Z,63.97
2019-03-25T03:41:57.279Z,63.87
2019-03-25T03:43:00.727Z,63.70
2019-03-25T03:44:04.252Z,63.67
2019-03-25T03:45:08.735Z,63.49
2019-03-25T03:46:12.182Z,63.61
2019-03-25T03:47:15.626Z,63.71
2019-03-25T03:48:19.153Z,63.87
2019-03-25T03:49:22.615Z,64.03
2019-03-25T03:50:27.297Z,63.89
2019-03-25T03:51:30.808Z,63.73
2019-03-25T03:52:35.688Z,63.73
2019-03-25T03:53:39.518Z,63.74
2019-03-25T03:54:43.093Z,63.99
2019-03-25T03:55:47.216Z,63.92
2019-03-25T03:56:53.444Z,63.77
2019-03-25T03:57:57.392Z,63.96
2019-03-25T03:59:03.967Z,64.48
2019-03-25T04:00:08.204Z,64.51
2019-03-25T04:01:11.717Z,64.32
2019-03-25T04:02:15.155Z,64.09
2019-03-25T04:03:18.664Z,64.00
2019-03-25T04:04:22.118Z,63.87
2019-03-25T04:05:25.633Z,64.10
2019-03-25T04:06:29.142Z,64.15
2019-03-25T04:07:32.582Z,64.36
2019-03-25T04:08:36.023Z,64.53
2019-03-25T04:09:39.615Z,64.53
2019-03-25T04:10:43.122Z,64.62
2019-03-25T04:11:46.631Z,64.57
2019-03-25T04:12:51.603Z,64.50
2019-03-25T04:13:55.191Z,64.56
2019-03-25T04:14:58.745Z,64.48
2019-03-25T04:16:02.230Z,64.58
2019-03-25T04:17:05.729Z,64.48
2019-03-25T04:18:09.232Z,64.43
2019-03-25T04:19:12.757Z,64.50
2019-03-25T04:20:16.215Z,64.71
2019-03-25T04:21:19.648Z,64.74
2019-03-25T04:22:23.165Z,64.91
2019-03-25T04:23:26.602Z,64.82
2019-03-25T04:24:30.054Z,64.80
2019-03-25T04:25:33.578Z,64.85
2019-03-25T04:26:37.066Z,64.66
2019-03-25T04:27:40.457Z,64.68
2019-03-25T04:28:43.883Z,64.59
2019-03-25T04:29:47.347Z,64.51
2019-03-25T04:30:51.023Z,64.55
2019-03-25T04:31:54.530Z,64.61
2019-03-25T04:32:57.972Z,64.99
2019-03-25T04:34:01.416Z,65.44
2019-03-25T04:35:05.919Z,65.40
2019-03-25T04:36:09.327Z,65.22
2019-03-25T04:37:12.823Z,65.20
2019-03-25T04:38:16.338Z,65.15
2019-03-25T04:39:19.786Z,65.36
2019-03-25T04:40:23.314Z,65.14
2019-03-25T04:41:26.753Z,65.13
2019-03-25T04:42:30.263Z,64.93
2019-03-25T04:43:33.697Z,64.96
2019-03-25T04:44:37.152Z,65.28
2019-03-25T04:45:40.587Z,65.48
2019-03-25T04:46:44.024Z,65.86
2019-03-25T04:47:47.462Z,66.28
2019-03-25T04:48:50.903Z,66.36
2019-03-25T04:49:54.355Z,66.50
2019-03-25T04:50:57.792Z,66.56
2019-03-25T04:52:01.228Z,66.77
2019-03-25T04:53:04.730Z,66.80
2019-03-25T04:54:08.168Z,66.81
2019-03-25T04:55:11.768Z,66.67
2019-03-25T04:56:15.207Z,66.48
2019-03-25T04:57:18.637Z,66.69
2019-03-25T04:58:22.108Z,66.60
2019-03-25T04:59:25.538Z,66.56
2019-03-25T05:00:34.114Z,66.53
2019-03-25T05:01:37.552Z,66.57
2019-03-25T05:02:41.060Z,66.47
2019-03-25T05:03:44.496Z,66.58
2019-03-25T05:04:47.952Z,66.85
2019-03-25T05:05:51.400Z,66.86
2019-03-25T05:06:54.831Z,66.94
2019-03-25T05:07:58.339Z,66.80
2019-03-25T05:09:01.772Z,66.68
2019-03-25T05:10:08.596Z,66.54
2019-03-25T05:11:12.096Z,66.80
2019-03-25T05:12:15.533Z,66.94
2019-03-25T05:13:18.969Z,67.00
2019-03-25T05:14:22.411Z,67.26
2019-03-25T05:15:25.876Z,67.16
2019-03-25T05:16:29.361Z,67.07
2019-03-25T05:17:32.844Z,67.39
2019-03-25T05:18:36.281Z,67.22
2019-03-25T05:19:39.724Z,67.55
2019-03-25T05:20:43.176Z,67.51
2019-03-25T05:21:46.676Z,67.36
2019-03-25T05:22:50.287Z,67.19
2019-03-25T05:23:53.724Z,67.25
2019-03-25T05:24:57.164Z,67.09
2019-03-25T05:26:00.622Z,67.33
2019-03-25T05:27:04.136Z,67.20
2019-03-25T05:28:07.600Z,67.15
2019-03-25T05:29:11.037Z,67.25
2019-03-25T05:30:14.622Z,67.15
2019-03-25T05:31:18.058Z,66.99
2019-03-25T05:32:21.501Z,67.00
2019-03-25T05:33:25.012Z,67.09
2019-03-25T05:34:28.510Z,67.10
2019-03-25T05:35:31.967Z,66.96
2019-03-25T05:36:35.472Z,66.83
2019-03-25T05:37:38.911Z,66.74
2019-03-25T05:38:42.347Z,66.61
2019-03-25T05:39:45.792Z,66.77
2019-03-25T05:40:49.313Z,66.90
2019-03-25T05:41:52.756Z,66.83
2019-03-25T05:42:56.190Z,66.67
2019-03-25T05:43:59.628Z,66.78
2019-03-25T05:45:03.345Z,66.92
2019-03-25T05:46:06.798Z,66.79
2019-03-25T05:47:10.238Z,66.58
2019-03-25T05:48:13.736Z,66.36
2019-03-25T05:49:17.174Z,66.33
2019-03-25T05:50:20.676Z,66.38
2019-03-25T05:51:24.128Z,66.45
2019-03-25T05:52:27.568Z,66.96
2019-03-25T05:53:31.021Z,66.94
2019-03-25T05:54:34.456Z,66.95
2019-03-25T05:55:37.907Z,66.75
2019-03-25T05:56:41.344Z,66.66
2019-03-25T05:57:44.792Z,66.79
2019-03-25T05:58:48.295Z,66.88
2019-03-25T05:59:51.727Z,66.83
2019-03-25T06:00:55.185Z,66.83
2019-03-25T06:01:58.686Z,66.50
2019-03-25T06:03:02.281Z,66.23
2019-03-25T06:04:05.711Z,66.08
2019-03-25T06:05:09.284Z,65.67
2019-03-25T06:06:12.748Z,65.90
2019-03-25T06:07:16.169Z,66.08
2019-03-25T06:08:19.598Z,66.02
2019-03-25T06:09:23.030Z,65.76
2019-03-25T06:10:26.457Z,65.50
2019-03-25T06:11:29.909Z,65.13
2019-03-25T06:12:33.341Z,64.93
2019-03-25T06:13:36.788Z,64.77
2019-03-25T06:14:40.226Z,64.77
2019-03-25T06:15:43.662Z,64.36
2019-03-25T06:16:47.113Z,64.38
2019-03-25T06:17:50.558Z,64.24
2019-03-25T06:18:53.991Z,63.96
2019-03-25T06:19:57.513Z,63.56
2019-03-25T06:21:00.952Z,62.98
2019-03-25T06:22:04.410Z,63.03
2019-03-25T06:23:07.918Z,62.73
2019-03-25T06:24:11.345Z,61.31
2019-03-25T06:25:14.917Z,61.31
2019-03-25T06:26:18.350Z,61.06
2019-03-25T06:27:21.812Z,60.94
2019-03-25T06:28:25.244Z,60.97
2019-03-25T06:29:28.794Z,61.15
2019-03-25T06:30:32.301Z,60.85
2019-03-25T06:31:35.734Z,60.68
2019-03-25T06:32:39.330Z,60.24
2019-03-25T06:33:42.779Z,59.54
2019-03-25T06:34:46.310Z,59.12
2019-03-25T06:35:49.872Z,59.22
2019-03-25T06:36:53.468Z,59.25
2019-03-25T06:37:57.014Z,58.92
2019-03-25T06:39:00.467Z,58.50
2019-03-25T06:40:06.536Z,58.54
2019-03-25T06:41:10.041Z,58.36
2019-03-25T06:42:13.536Z,58.67
2019-03-25T06:43:17.126Z,58.85
2019-03-25T06:44:20.593Z,58.43
2019-03-25T06:45:24.146Z,58.47
2019-03-25T06:46:27.605Z,58.42
2019-03-25T06:47:31.060Z,59.05
2019-03-25T06:48:34.585Z,58.68
2019-03-25T06:49:38.028Z,57.49
2019-03-25T06:50:41.549Z,57.71
2019-03-25T06:51:45.409Z,57.60
2019-03-25T06:52:48.890Z,57.46
2019-03-25T06:53:52.426Z,57.43
2019-03-25T06:54:55.955Z,57.53
2019-03-25T06:55:59.390Z,57.56
2019-03-25T06:57:02.837Z,57.33
2019-03-25T06:58:06.398Z,57.33
2019-03-25T06:59:09.859Z,57.29
2019-03-25T07:00:13.630Z,57.18
2019-03-25T07:01:17.053Z,56.82
2019-03-25T07:02:20.482Z,57.08
2019-03-25T07:03:24.051Z,56.79
2019-03-25T07:04:27.498Z,55.82
2019-03-25T07:05:30.942Z,55.82
2019-03-25T07:06:34.524Z,55.97
2019-03-25T07:07:38.098Z,55.68
2019-03-25T07:08:41.528Z,55.57
2019-03-25T07:09:45.096Z,55.18
2019-03-25T07:10:48.889Z,55.18
2019-03-25T07:11:52.393Z,54.66
2019-03-25T07:12:56.041Z,54.40
2019-03-25T07:13:59.709Z,54.05
2019-03-25T07:15:03.235Z,55.32
2019-03-25T07:16:06.796Z,54.80
2019-03-25T07:17:10.327Z,54.80
2019-03-25T07:18:13.841Z,54.34
2019-03-25T07:19:17.350Z,53.68
2019-03-25T07:20:20.818Z,53.49
2019-03-25T07:21:24.324Z,53.78
2019-03-25T07:22:27.876Z,53.51
2019-03-25T07:23:31.385Z,52.95
2019-03-25T07:24:34.869Z,51.54
2019-03-25T07:25:38.407Z,51.54
2019-03-25T07:26:41.960Z,50.92
2019-03-25T07:27:45.445Z,51.46
2019-03-25T07:28:48.998Z,51.46
2019-03-25T07:29:52.530Z,51.40
2019-03-25T07:30:56.109Z,51.07
2019-03-25T07:31:59.563Z,50.62
2019-03-25T07:33:03.059Z,49.95
2019-03-25T07:34:06.495Z,49.55
2019-03-25T07:35:10.157Z,49.55
2019-03-25T07:36:13.606Z,49.88
2019-03-25T07:37:17.043Z,49.61
2019-03-25T07:38:20.505Z,49.25
2019-03-25T07:39:23.933Z,49.49
2019-03-25T07:40:27.429Z,49.39
2019-03-25T07:41:30.876Z,49.73
2019-03-25T07:42:34.378Z,49.67
2019-03-25T07:43:37.806Z,48.94
2019-03-25T07:44:41.238Z,49.01
2019-03-25T07:45:44.669Z,49.00
2019-03-25T07:46:48.118Z,48.89
2019-03-25T07:47:51.639Z,48.82
2019-03-25T07:48:55.090Z,48.87
2019-03-25T07:50:01.286Z,48.67
2019-03-25T07:51:05.316Z,48.84
2019-03-25T07:52:08.762Z,48.62
2019-03-25T07:53:12.197Z,48.52
2019-03-25T07:54:15.634Z,48.59
2019-03-25T07:55:19.072Z,48.63
2019-03-25T07:56:22.523Z,48.51
2019-03-25T07:57:25.974Z,48.61
2019-03-25T07:58:29.416Z,48.61
2019-03-25T07:59:32.917Z,48.69
2019-03-25T08:00:36.414Z,48.62
2019-03-25T08:01:39.901Z,48.47
2019-03-25T08:02:43.383Z,48.49
2019-03-25T08:03:46.812Z,48.87
2019-03-25T08:04:50.238Z,48.93
2019-03-25T08:05:53.659Z,48.68
2019-03-25T08:06:57.160Z,48.91
2019-03-25T08:08:00.613Z,49.27
2019-03-25T08:09:05.029Z,49.31
2019-03-25T08:10:09.027Z,48.75
2019-03-25T08:11:12.503Z,48.75
2019-03-25T08:12:16.012Z,49.19
2019-03-25T08:13:19.559Z,49.19
2019-03-25T08:14:23.082Z,48.89
2019-03-25T08:15:26.524Z,49.12
2019-03-25T08:16:29.966Z,49.08
2019-03-25T08:17:33.460Z,49.11
2019-03-25T08:18:36.907Z,48.98
2019-03-25T08:19:40.362Z,49.19
2019-03-25T08:20:43.792Z,49.26
2019-03-25T08:21:47.234Z,49.15
2019-03-25T08:22:50.668Z,48.90
2019-03-25T08:23:54.211Z,49.04
2019-03-25T08:24:57.666Z,48.59
2019-03-25T08:26:01.124Z,48.81
2019-03-25T08:27:04.757Z,48.90
2019-03-25T08:28:08.188Z,48.93
2019-03-25T08:29:11.710Z,48.89
2019-03-25T08:30:15.269Z,48.86
2019-03-25T08:31:18.702Z,48.89
2019-03-25T08:32:22.290Z,48.92
2019-03-25T08:33:25.725Z,48.92
2019-03-25T08:34:29.184Z,48.72
2019-03-25T08:35:32.626Z,48.80
2019-03-25T08:36:36.080Z,48.66
2019-03-25T08:37:39.606Z,48.70
2019-03-25T08:38:43.118Z,48.10
2019-03-25T08:39:46.633Z,48.32
2019-03-25T08:40:50.145Z,48.42
2019-03-25T08:41:53.746Z,48.06
2019-03-25T08:42:57.202Z,48.08
2019-03-25T08:44:00.668Z,47.85
2019-03-25T08:45:05.268Z,47.89
2019-03-25T08:46:08.773Z,47.74
2019-03-25T08:47:12.202Z,47.69
2019-03-25T08:48:15.638Z,47.76
2019-03-25T08:49:19.081Z,47.69
2019-03-25T08:50:22.577Z,47.57
2019-03-25T08:51:26.007Z,47.68
2019-03-25T08:52:29.511Z,47.92
2019-03-25T08:53:33.013Z,48.01
2019-03-25T08:54:37.920Z,47.81
2019-03-25T08:55:41.606Z,47.74
2019-03-25T08:56:45.117Z,47.75
2019-03-25T08:57:48.722Z,47.52
2019-03-25T08:58:52.168Z,47.71
2019-03-25T08:59:57.691Z,47.61
2019-03-25T09:01:00.955Z,47.54
2019-03-25T09:02:04.542Z,47.42
2019-03-25T09:03:07.965Z,47.46
2019-03-25T09:04:11.405Z,47.10
2019-03-25T09:05:15.077Z,47.28
2019-03-25T09:06:18.668Z,47.37
2019-03-25T09:07:22.214Z,47.46
2019-03-25T09:08:25.663Z,47.48
2019-03-25T09:09:29.104Z,47.30
2019-03-25T09:10:32.541Z,47.16
2019-03-25T09:11:36.111Z,47.53
2019-03-25T09:12:39.550Z,47.50
2019-03-25T09:13:43.049Z,47.35
2019-03-25T09:14:46.478Z,47.46
2019-03-25T09:15:49.919Z,47.53
2019-03-25T09:16:53.367Z,47.60
2019-03-25T09:17:56.891Z,47.41
2019-03-25T09:19:00.322Z,47.29
2019-03-25T09:20:06.392Z,47.53
2019-03-25T09:21:09.906Z,47.43
2019-03-25T09:22:13.356Z,47.35
2019-03-25T09:23:16.858Z,47.49
2019-03-25T09:24:20.290Z,47.28
2019-03-25T09:25:23.724Z,47.44
2019-03-25T09:26:27.237Z,47.41
2019-03-25T09:27:30.701Z,47.56
2019-03-25T09:28:34.194Z,47.40
2019-03-25T09:29:37.626Z,47.39
2019-03-25T09:30:52.648Z,47.13
2019-03-25T09:31:56.073Z,46.61
2019-03-25T09:32:59.595Z,46.54
2019-03-25T09:34:03.027Z,46.37
2019-03-25T09:35:08.862Z,46.43
2019-03-25T09:36:12.362Z,46.42
2019-03-25T09:37:15.882Z,46.04
2019-03-25T09:38:19.397Z,46.42
2019-03-25T09:39:22.853Z,46.38
2019-03-25T09:40:26.360Z,46.21
2019-03-25T09:41:29.788Z,46.05
2019-03-25T09:42:33.223Z,45.53
2019-03-25T09:43:36.733Z,45.64
2019-03-25T09:44:40.163Z,45.56
2019-03-25T09:45:43.592Z,45.08
2019-03-25T09:46:47.021Z,45.00
2019-03-25T09:47:50.444Z,45.02
2019-03-25T09:48:53.895Z,45.11
2019-03-25T09:49:57.389Z,45.02
2019-03-25T09:51:00.848Z,44.79
2019-03-25T09:52:04.340Z,44.85
2019-03-25T09:53:07.935Z,44.88
2019-03-25T09:54:11.608Z,44.94
2019-03-25T09:55:16.583Z,45.04
2019-03-25T09:56:20.364Z,44.70
2019-03-25T09:57:23.791Z,44.42
2019-03-25T09:58:36.194Z,44.28
2019-03-25T09:59:32.540Z,44.25
2019-03-25T10:00:36.115Z,44.30
2019-03-25T10:01:39.623Z,44.20
2019-03-25T10:02:43.058Z,44.05
2019-03-25T10:03:46.553Z,43.84
2019-03-25T10:04:50.081Z,43.44
2019-03-25T10:05:53.597Z,43.20
2019-03-25T10:06:57.776Z,43.01
2019-03-25T10:08:01.219Z,43.09
2019-03-25T10:09:07.708Z,42.60
2019-03-25T10:10:11.267Z,42.19
2019-03-25T10:11:14.659Z,42.47
2019-03-25T10:12:18.085Z,41.55
2019-03-25T10:13:21.526Z,41.58
2019-03-25T10:14:24.954Z,41.54
2019-03-25T10:15:28.406Z,41.35
2019-03-25T10:16:31.829Z,41.36
2019-03-25T10:17:35.279Z,41.37
2019-03-25T10:18:38.709Z,41.38
2019-03-25T10:19:42.296Z,41.22
2019-03-25T10:20:45.738Z,41.05
2019-03-25T10:21:49.170Z,40.55
2019-03-25T10:22:52.609Z,40.38
2019-03-25T10:23:56.071Z,40.38
2019-03-25T10:24:59.485Z,40.22
2019-03-25T10:26:03.005Z,40.18
2019-03-25T10:27:06.433Z,40.40
2019-03-25T10:28:09.871Z,40.47
2019-03-25T10:29:13.323Z,40.73
2019-03-25T10:30:18.905Z,40.99
2019-03-25T10:31:22.324Z,39.72
2019-03-25T10:32:25.777Z,39.94
2019-03-25T10:33:29.197Z,40.19
2019-03-25T10:34:32.625Z,40.52
2019-03-25T10:35:36.053Z,39.92
2019-03-25T10:36:39.564Z,39.49
2019-03-25T10:37:43.151Z,39.46
2019-03-25T10:38:46.577Z,39.42
2019-03-25T10:39:50.001Z,38.96
2019-03-25T10:40:53.430Z,38.75
2019-03-25T10:41:56.883Z,38.56
2019-03-25T10:43:00.329Z,38.98
2019-03-25T10:44:03.903Z,38.28
2019-03-25T10:45:08.173Z,38.35
2019-03-25T10:46:11.594Z,38.62
2019-03-25T10:47:15.121Z,38.43
2019-03-25T10:48:18.566Z,38.46
2019-03-25T10:49:21.999Z,38.60
2019-03-25T10:50:25.434Z,37.79
2019-03-25T10:51:28.871Z,37.34
2019-03-25T10:52:32.385Z,36.78
2019-03-25T10:53:35.861Z,36.24
2019-03-25T10:54:39.368Z,36.33
2019-03-25T10:55:42.854Z,36.43
2019-03-25T10:56:49.259Z,36.61
2019-03-25T10:57:51.617Z,36.87
2019-03-25T10:58:58.268Z,37.04
2019-03-25T11:00:00.325Z,37.17
2019-03-25T11:01:03.789Z,37.08
2019-03-25T11:02:07.361Z,37.01
2019-03-25T11:03:10.872Z,36.48
2019-03-25T11:04:14.303Z,36.62
2019-03-25T11:05:17.871Z,36.62
2019-03-25T11:06:21.438Z,36.75
2019-03-25T11:07:24.931Z,36.60
2019-03-25T11:08:28.415Z,36.49
2019-03-25T11:09:31.920Z,36.50
2019-03-25T11:10:35.424Z,36.57
2019-03-25T11:11:38.857Z,36.42
2019-03-25T11:12:42.283Z,36.08
2019-03-25T11:13:45.806Z,36.63
2019-03-25T11:14:49.239Z,36.78
2019-03-25T11:15:52.732Z,36.95
2019-03-25T11:16:56.239Z,36.63
2019-03-25T11:17:59.679Z,36.91
2019-03-25T11:19:03.137Z,36.89
2019-03-25T11:20:09.091Z,37.19
2019-03-25T11:21:12.582Z,37.09
2019-03-25T11:22:15.998Z,36.90
2019-03-25T11:23:19.518Z,36.45
2019-03-25T11:24:23.034Z,36.31
2019-03-25T11:25:26.579Z,36.42
2019-03-25T11:26:30.057Z,35.89
2019-03-25T11:27:33.500Z,35.24
2019-03-25T11:28:36.948Z,34.89
2019-03-25T11:29:40.378Z,35.77
2019-03-25T11:30:57.307Z,35.09
2019-03-25T11:32:01.004Z,34.72
2019-03-25T11:33:04.431Z,34.61
2019-03-25T11:34:07.993Z,34.63
2019-03-25T11:35:11.848Z,35.03
2019-03-25T11:36:15.280Z,34.39
2019-03-25T11:37:18.783Z,34.26
2019-03-25T11:38:22.350Z,34.15
2019-03-25T11:39:25.877Z,33.94
2019-03-25T11:40:29.380Z,33.77
2019-03-25T11:41:32.804Z,33.97
2019-03-25T11:42:36.299Z,33.55
2019-03-25T11:43:39.749Z,32.74
2019-03-25T11:44:43.182Z,32.54
2019-03-25T11:45:46.752Z,32.04
2019-03-25T11:46:50.169Z,32.52
2019-03-25T11:47:53.596Z,32.31
2019-03-25T11:48:57.073Z,32.06
2019-03-25T11:50:00.502Z,32.47
2019-03-25T11:51:04.012Z,32.45
2019-03-25T11:52:07.446Z,32.41
2019-03-25T11:53:10.876Z,32.38
2019-03-25T11:54:14.328Z,32.35
2019-03-25T11:55:17.921Z,32.81
2019-03-25T11:56:21.332Z,32.61
2019-03-25T11:57:24.762Z,32.42
2019-03-25T11:58:28.269Z,32.41
2019-03-25T11:59:31.870Z,32.24
2019-03-25T12:00:35.298Z,32.54
2019-03-25T12:01:38.726Z,33.03
2019-03-25T12:02:42.153Z,33.15
2019-03-25T12:03:45.658Z,33.34
2019-03-25T12:04:49.124Z,33.47
2019-03-25T12:05:52.629Z,33.50
2019-03-25T12:06:56.131Z,33.63
2019-03-25T12:07:59.575Z,33.51
2019-03-25T12:09:03.483Z,33.62
2019-03-25T12:10:07.455Z,33.60
2019-03-25T12:11:11.020Z,33.81
2019-03-25T12:12:14.468Z,34.07
2019-03-25T12:13:18.023Z,34.52
2019-03-25T12:14:21.470Z,34.58
2019-03-25T12:15:24.894Z,34.80
2019-03-25T12:16:28.396Z,34.78
2019-03-25T12:17:31.831Z,34.75
2019-03-25T12:18:35.336Z,34.97
2019-03-25T12:19:38.781Z,35.34
2019-03-25T12:20:42.287Z,35.43
2019-03-25T12:21:45.791Z,35.58
2019-03-25T12:22:49.222Z,36.10
2019-03-25T12:23:52.728Z,36.10
2019-03-25T12:24:56.208Z,36.23
2019-03-25T12:25:59.690Z,35.80
2019-03-25T12:27:03.118Z,34.55
2019-03-25T12:28:06.629Z,33.17
2019-03-25T12:29:10.068Z,32.61
2019-03-25T12:30:13.649Z,33.14
2019-03-25T12:31:17.214Z,32.44
2019-03-25T12:32:20.643Z,32.71
2019-03-25T12:33:24.148Z,32.87
2019-03-25T12:34:27.799Z,32.30
2019-03-25T12:35:31.474Z,32.39
2019-03-25T12:36:34.905Z,32.53
2019-03-25T12:37:38.391Z,32.13
2019-03-25T12:38:41.823Z,31.98
2019-03-25T12:39:45.286Z,31.23
2019-03-25T12:40:48.798Z,29.88
2019-03-25T12:41:52.233Z,29.01
2019-03-25T12:42:55.665Z,29.89
2019-03-25T12:43:59.105Z,30.33
2019-03-25T12:45:02.566Z,30.50
2019-03-25T12:46:06.135Z,30.18
2019-03-25T12:47:09.625Z,29.29
2019-03-25T12:48:13.127Z,29.05
2019-03-25T12:49:16.568Z,27.85
2019-03-25T12:50:20.155Z,28.22
2019-03-25T12:51:23.648Z,29.60
2019-03-25T12:52:27.081Z,30.72
2019-03-25T12:53:30.532Z,31.33
2019-03-25T12:54:33.959Z,31.75
2019-03-25T12:55:37.539Z,32.10
2019-03-25T12:56:40.971Z,32.73
2019-03-25T12:57:44.407Z,33.15
2019-03-25T12:58:47.836Z,33.24
2019-03-25T12:59:51.261Z,33.62
2019-03-25T13:00:54.700Z,33.91
2019-03-25T13:01:58.144Z,33.99
2019-03-25T13:03:01.570Z,34.26
2019-03-25T13:04:05.001Z,34.45
2019-03-25T13:05:08.670Z,34.60
2019-03-25T13:06:12.105Z,34.95
2019-03-25T13:07:15.545Z,35.26
2019-03-25T13:08:18.995Z,35.37
2019-03-25T13:09:22.395Z,35.45
2019-03-25T13:10:25.892Z,35.91
2019-03-25T13:11:29.337Z,36.13
2019-03-25T13:12:32.790Z,36.58
2019-03-25T13:13:36.225Z,36.72
2019-03-25T13:14:39.719Z,36.96
2019-03-25T13:15:43.152Z,37.82
2019-03-25T13:16:46.675Z,38.94
2019-03-25T13:17:50.171Z,40.15
2019-03-25T13:18:53.609Z,40.68
2019-03-25T13:19:57.038Z,42.39
2019-03-25T13:21:00.593Z,43.06
2019-03-25T13:22:04.105Z,43.22
2019-03-25T13:23:07.615Z,44.65
2019-03-25T13:24:11.141Z,45.01
2019-03-25T13:25:14.591Z,44.99
2019-03-25T13:26:18.050Z,44.71
2019-03-25T13:27:21.491Z,43.92
2019-03-25T13:28:24.936Z,44.24
2019-03-25T13:29:28.381Z,43.92
2019-03-25T13:30:31.966Z,44.07
2019-03-25T13:31:35.468Z,44.40
2019-03-25T13:32:38.995Z,44.41
2019-03-25T13:33:42.513Z,44.30
2019-03-25T13:34:45.949Z,44.43
2019-03-25T13:35:49.379Z,44.56
2019-03-25T13:36:52.802Z,44.56
2019-03-25T13:37:58.888Z,44.38
2019-03-25T13:39:01.509Z,44.19